Terminal Aerodrome Forecast
Issued by NWS Mt. Holly, NJ

Home | Current Version | Previous Version | Text Only | Print | Product List | Glossary On
Versions: 1 2 3 4 5 6 7 8 9 10 11 12 13 14 15 16 17 18 19 20 21 22 23 24 25 26 27 28 29 30 31 32 33 34 35
000
FTUS41 KPHI 030000 AAB
TAFPHL
TAF AMD
KPHL 030024Z 0300/0406 23008KT P6SM -TSRA BKN040CB BKN080
     FM030035 24006KT P6SM -SHRA VCTS BKN040CB BKN100
     FM030045 25005KT P6SM SCT040 BKN150
     FM030700 29006KT P6SM SCT150
     FM031300 33010KT P6SM FEW200
     FM031900 29008KT P6SM SKC=

USA.gov is the U.S. government's official web portal to all federal, state and local government web resources and services.